Time;durP1;ratioP1;P1;durP2;ratioP2;P2;SDS_P1;SDS_P2;PMS_P1;PMS_P2;Temp;Humidity;BMP_temperature;BMP_pressure;BME280_temperature;BME280_humidity;BME280_pressure;Samples;Min_cycle;Max_cycle;Signal;HPM_P1;HPM_P2
2021/05/11 00:01:10;;;;;;;3.88;2.50;;;16.30;90.00;;;;;;5062360;28;20089;-66
2021/05/11 00:03:36;;;;;;;4.63;3.08;;;16.30;89.80;;;;;;5060962;28;20044;-67
2021/05/11 00:06:02;;;;;;;4.72;2.30;;;16.20;90.00;;;;;;5062063;28;20114;-68
2021/05/11 00:08:28;;;;;;;5.80;2.50;;;16.20;90.20;;;;;;5064296;28;20028;-68
2021/05/11 00:10:54;;;;;;;5.78;2.67;;;16.10;90.10;;;;;;5060458;28;20402;-67
2021/05/11 00:13:19;;;;;;;4.05;2.40;;;16.10;90.10;;;;;;5061462;28;20078;-67
2021/05/11 00:15:45;;;;;;;5.82;3.00;;;16.10;90.40;;;;;;5059650;28;20020;-68
2021/05/11 00:18:13;;;;;;;6.00;3.08;;;16.00;90.40;;;;;;5062001;28;20475;-67
2021/05/11 00:20:38;;;;;;;6.55;2.58;;;16.00;90.80;;;;;;5061001;28;20033;-68
2021/05/11 00:23:04;;;;;;;7.15;3.05;;;15.90;90.90;;;;;;5061538;28;20029;-68
2021/05/11 00:25:30;;;;;;;4.68;2.15;;;15.90;91.20;;;;;;5065249;28;20369;-67
2021/05/11 00:27:56;;;;;;;4.07;2.33;;;15.80;91.30;;;;;;5067014;28;20117;-68
2021/05/11 00:30:22;;;;;;;5.35;2.53;;;15.70;91.40;;;;;;5060975;28;20502;-68
2021/05/11 00:32:49;;;;;;;4.18;2.22;;;15.70;91.40;;;;;;5059632;28;20051;-67
2021/05/11 00:35:15;;;;;;;4.20;2.60;;;15.60;91.40;;;;;;5059098;28;20071;-67
2021/05/11 00:37:41;;;;;;;5.82;2.20;;;15.60;91.20;;;;;;5062467;28;20079;-66
2021/05/11 00:40:07;;;;;;;4.00;2.05;;;15.50;91.30;;;;;;5058739;28;20042;-67
2021/05/11 00:42:34;;;;;;;4.57;1.92;;;15.50;91.30;;;;;;5041661;28;20051;-66
2021/05/11 00:45:02;;;;;;;7.45;2.40;;;15.50;91.20;;;;;;5062579;28;20071;-68
2021/05/11 00:47:28;;;;;;;4.82;2.10;;;15.60;91.10;;;;;;5067297;28;20592;-67
2021/05/11 00:49:54;;;;;;;3.92;2.35;;;15.60;91.10;;;;;;5064776;28;20033;-66
2021/05/11 00:52:21;;;;;;;3.55;2.10;;;15.60;91.00;;;;;;5059053;28;20035;-67
2021/05/11 00:54:48;;;;;;;5.05;2.35;;;15.60;90.80;;;;;;5059669;28;20035;-69
2021/05/11 00:57:14;;;;;;;3.53;2.08;;;15.60;90.90;;;;;;5062646;28;20048;-67
2021/05/11 00:59:41;;;;;;;3.83;2.20;;;15.60;91.10;;;;;;5064728;28;20409;-66
2021/05/11 01:02:07;;;;;;;6.55;2.97;;;15.50;91.30;;;;;;5067697;28;20112;-67
2021/05/11 01:04:34;;;;;;;5.55;3.08;;;15.50;91.30;;;;;;5055363;28;20528;-66
2021/05/11 01:07:02;;;;;;;3.55;2.95;;;15.50;91.50;;;;;;5061581;28;20029;-67
2021/05/11 01:09:28;;;;;;;5.55;2.60;;;15.40;91.60;;;;;;5062696;28;20028;-66
2021/05/11 01:11:57;;;;;;;4.57;3.22;;;15.40;91.60;;;;;;5062013;28;20509;-66
2021/05/11 01:14:27;;;;;;;5.95;3.10;;;15.40;91.70;;;;;;5065352;28;20020;-66
2021/05/11 01:16:59;;;;;;;9.70;3.60;;;15.40;91.80;;;;;;5062870;28;20032;-66
2021/05/11 01:19:37;;;;;;;5.45;2.70;;;15.40;91.70;;;;;;5064524;28;20029;-66
2021/05/11 01:24:43;;;;;;;4.68;2.63;;;15.40;91.90;;;;;;5059436;28;20028;-66
2021/05/11 01:27:33;;;;;;;3.97;2.40;;;15.40;91.80;;;;;;5062510;28;20072;-67
2021/05/11 01:48:39;;;;;;;7.55;4.00;;;15.20;92.50;;;;;;5049166;28;23606;-68
2021/05/11 01:59:26;;;;;;;5.43;3.30;;;15.10;92.70;;;;;;5057713;28;20030;-67
2021/05/11 02:10:09;;;;;;;7.30;2.70;;;15.00;93.00;;;;;;5058456;28;20024;-67
2021/05/11 02:23:32;;;;;;;5.32;3.75;;;14.80;93.40;;;;;;5062953;28;20036;-68
2021/05/11 02:25:59;;;;;;;7.82;3.60;;;14.80;93.50;;;;;;5058619;28;20028;-68
2021/05/11 02:28:26;;;;;;;4.95;4.00;;;14.70;93.90;;;;;;5062629;28;20039;-68
2021/05/11 02:30:52;;;;;;;6.60;3.70;;;14.70;93.10;;;;;;5059240;28;20047;-67
2021/05/11 02:33:19;;;;;;;5.30;3.78;;;14.80;93.50;;;;;;5063347;28;20383;-68
2021/05/11 02:35:45;;;;;;;6.03;4.38;;;14.70;93.70;;;;;;5055746;28;20041;-69
2021/05/11 02:38:10;;;;;;;7.13;3.80;;;14.70;93.70;;;;;;5066667;28;20032;-69
2021/05/11 02:40:36;;;;;;;7.38;3.92;;;14.70;93.50;;;;;;5047755;28;20032;-68
2021/05/11 02:43:09;;;;;;;6.18;4.10;;;14.70;93.40;;;;;;5059699;28;20395;-68
2021/05/11 02:45:35;;;;;;;7.20;3.42;;;14.60;93.20;;;;;;5058219;28;20033;-66
2021/05/11 02:48:01;;;;;;;5.18;3.80;;;14.70;93.30;;;;;;5054302;28;20039;-69
2021/05/11 02:50:30;;;;;;;6.68;4.55;;;14.70;93.10;;;;;;5055853;28;20462;-68
2021/05/11 02:52:56;;;;;;;6.30;4.05;;;14.70;92.90;;;;;;5064218;28;20039;-68
2021/05/11 02:55:22;;;;;;;4.88;3.53;;;14.70;93.00;;;;;;5061212;28;20058;-68
2021/05/11 02:57:49;;;;;;;8.35;4.05;;;14.60;93.40;;;;;;5055697;28;20025;-68
2021/05/11 03:00:18;;;;;;;4.80;3.83;;;14.70;93.20;;;;;;5053787;28;20016;-68
2021/05/11 03:02:44;;;;;;;6.30;4.70;;;14.70;93.10;;;;;;5056440;28;20437;-68
2021/05/11 03:05:10;;;;;;;6.20;4.43;;;14.60;92.60;;;;;;5052845;28;20025;-68
2021/05/11 03:07:36;;;;;;;8.90;5.00;;;14.50;93.00;;;;;;5057305;28;20032;-69
2021/05/11 03:10:04;;;;;;;6.03;3.40;;;14.50;92.70;;;;;;5062386;28;20518;-68
2021/05/11 03:12:30;;;;;;;6.55;3.47;;;14.40;93.10;;;;;;5060077;28;20059;-67
2021/05/11 03:14:55;;;;;;;7.05;3.40;;;14.30;93.50;;;;;;5065340;28;20498;-67
2021/05/11 03:17:21;;;;;;;7.00;3.38;;;14.30;93.10;;;;;;5059212;28;20120;-67
2021/05/11 03:19:47;;;;;;;5.35;2.70;;;14.30;93.40;;;;;;5060127;28;20035;-66
2021/05/11 03:22:13;;;;;;;4.22;2.72;;;14.30;93.20;;;;;;5059765;28;20446;-68
2021/05/11 03:24:43;;;;;;;3.95;2.75;;;14.30;93.00;;;;;;5059468;28;20508;-67
2021/05/11 03:27:09;;;;;;;6.03;2.77;;;14.30;93.30;;;;;;5057841;28;20050;-67
2021/05/11 03:29:35;;;;;;;3.65;2.40;;;14.30;93.00;;;;;;5056682;28;20326;-67
2021/05/11 03:32:01;;;;;;;4.45;2.17;;;14.30;93.00;;;;;;5054941;28;20065;-67
2021/05/11 03:34:27;;;;;;;3.75;2.25;;;14.40;93.00;;;;;;5060118;28;20054;-66
2021/05/11 03:36:52;;;;;;;6.07;2.60;;;14.30;92.80;;;;;;5050973;28;20081;-66
2021/05/11 03:39:18;;;;;;;5.03;2.40;;;14.30;92.80;;;;;;5060648;28;20108;-68
2021/05/11 03:41:49;;;;;;;5.07;2.45;;;14.20;93.20;;;;;;5064013;28;20032;-68
2021/05/11 03:44:18;;;;;;;5.57;2.50;;;14.20;93.30;;;;;;5066795;28;20510;-67
2021/05/11 03:46:44;;;;;;;5.53;2.33;;;14.20;93.30;;;;;;5053330;28;20048;-68
2021/05/11 03:49:10;;;;;;;4.72;2.45;;;14.10;93.20;;;;;;5056377;28;20539;-68
2021/05/11 03:51:36;;;;;;;7.82;2.30;;;14.10;93.30;;;;;;5054852;28;20116;-68
2021/05/11 03:54:04;;;;;;;5.45;2.28;;;14.10;93.20;;;;;;5064706;28;20490;-68
2021/05/11 03:56:30;;;;;;;3.60;1.88;;;14.10;93.30;;;;;;5062352;28;20493;-67
2021/05/11 03:58:56;;;;;;;4.68;2.28;;;14.00;93.40;;;;;;5046134;28;20100;-68
2021/05/11 04:01:21;;;;;;;6.18;2.15;;;14.00;93.10;;;;;;5053710;28;20025;-68
2021/05/11 04:03:48;;;;;;;3.95;2.63;;;14.00;93.50;;;;;;5057134;28;20091;-67
2021/05/11 04:06:13;;;;;;;5.38;2.17;;;14.00;93.60;;;;;;5058622;28;20068;-67
2021/05/11 04:08:58;;;;;;;5.20;2.45;;;14.10;93.20;;;;;;5064520;28;20635;-68
2021/05/11 04:16:42;;;;;;;4.72;1.67;;;14.00;93.30;;;;;;5056864;28;19908;-68
2021/05/11 04:19:09;;;;;;;3.67;1.73;;;13.90;93.20;;;;;;5062356;28;20028;-68
2021/05/11 04:21:35;;;;;;;3.63;1.45;;;13.90;92.90;;;;;;5064327;28;20033;-68
2021/05/11 04:24:02;;;;;;;5.80;1.70;;;13.80;92.90;;;;;;5065677;28;20033;-67
2021/05/11 04:26:28;;;;;;;4.90;1.40;;;13.70;92.50;;;;;;5067445;28;20028;-68
2021/05/11 04:28:54;;;;;;;5.25;1.50;;;13.60;92.20;;;;;;5066973;28;20033;-68
2021/05/11 04:31:20;;;;;;;3.33;1.67;;;13.60;93.10;;;;;;5064632;28;20028;-67
2021/05/11 04:33:46;;;;;;;2.47;1.50;;;13.50;92.80;;;;;;5061062;28;20573;-68
2021/05/11 04:36:14;;;;;;;6.82;1.73;;;13.50;93.00;;;;;;5063282;28;20036;-67
2021/05/11 04:38:40;;;;;;;5.18;1.58;;;13.50;92.90;;;;;;5064395;28;20527;-68
2021/05/11 04:41:06;;;;;;;5.18;1.88;;;13.60;92.70;;;;;;5047990;28;20584;-69
2021/05/11 04:43:35;;;;;;;4.18;1.60;;;13.50;92.90;;;;;;5066308;28;20051;-66
2021/05/11 04:46:51;;;;;;;5.75;1.88;;;13.60;92.80;;;;;;5057639;28;20028;-67
2021/05/11 04:48:49;;;;;;;7.05;1.60;;;13.60;92.70;;;;;;5049670;28;20041;-67
2021/05/11 04:51:17;;;;;;;6.15;1.70;;;13.60;92.50;;;;;;5063044;28;20103;-66
2021/05/11 04:53:43;;;;;;;6.00;1.38;;;13.60;92.60;;;;;;5055924;28;20041;-67
2021/05/11 04:56:09;;;;;;;4.18;1.42;;;13.60;92.20;;;;;;5052754;28;20028;-68
2021/05/11 04:58:35;;;;;;;5.35;2.33;;;13.60;92.40;;;;;;5057337;28;20464;-68
2021/05/11 05:01:02;;;;;;;6.90;2.00;;;13.60;92.70;;;;;;5061106;28;20025;-67
2021/05/11 05:03:40;;;;;;;7.25;1.92;;;13.60;92.80;;;;;;5059449;28;20035;-67
2021/05/11 05:06:06;;;;;;;3.38;1.38;;;13.60;92.70;;;;;;5049474;28;20054;-66
2021/05/11 05:08:32;;;;;;;3.47;2.00;;;13.60;92.90;;;;;;5055604;28;20039;-68
2021/05/11 05:10:58;;;;;;;3.45;1.90;;;13.60;93.00;;;;;;5060971;28;20425;-67
2021/05/11 05:13:26;;;;;;;2.90;1.85;;;13.60;92.80;;;;;;5049820;28;20029;-67
2021/05/11 05:15:55;;;;;;;5.75;2.25;;;13.60;92.50;;;;;;5059337;28;20433;-67
2021/05/11 05:18:22;;;;;;;5.60;2.05;;;13.60;92.60;;;;;;5057014;28;20024;-67
2021/05/11 05:20:50;;;;;;;5.50;1.55;;;13.60;92.60;;;;;;5065439;28;20081;-69
2021/05/11 05:23:18;;;;;;;3.90;1.70;;;13.60;92.90;;;;;;5063694;28;20488;-67
2021/05/11 05:26:00;;;;;;;4.47;2.20;;;13.60;92.80;;;;;;5065671;28;20020;-66
2021/05/11 05:28:26;;;;;;;5.20;2.13;;;13.60;92.70;;;;;;5055698;28;20025;-67
2021/05/11 05:30:52;;;;;;;3.72;1.65;;;13.60;92.70;;;;;;5063449;28;20032;-67
2021/05/11 05:33:18;;;;;;;6.30;1.83;;;13.60;92.90;;;;;;5053619;28;20026;-67
2021/05/11 05:35:45;;;;;;;6.75;2.53;;;13.60;93.00;;;;;;5060571;28;20082;-67
2021/05/11 05:38:11;;;;;;;9.80;2.00;;;13.60;92.70;;;;;;5059271;28;20023;-68
2021/05/11 05:40:40;;;;;;;4.97;2.17;;;13.50;92.80;;;;;;5060447;28;20139;-66
2021/05/11 05:43:08;;;;;;;5.15;2.78;;;13.50;92.40;;;;;;5054686;28;20459;-67
2021/05/11 05:45:35;;;;;;;5.53;2.30;;;13.40;93.00;;;;;;5056919;28;20047;-67
2021/05/11 05:48:00;;;;;;;6.78;2.35;;;13.50;93.00;;;;;;5053874;28;20071;-67
2021/05/11 05:50:30;;;;;;;5.95;2.00;;;13.50;92.90;;;;;;5051714;28;20552;-67
2021/05/11 05:53:02;;;;;;;5.60;2.38;;;13.40;93.20;;;;;;5061650;28;20035;-67
2021/05/11 05:55:29;;;;;;;6.68;2.70;;;13.40;93.30;;;;;;5054000;28;20025;-66
2021/05/11 05:57:56;;;;;;;5.07;2.08;;;13.40;93.50;;;;;;5054467;28;20033;-67
2021/05/11 06:00:22;;;;;;;6.15;2.25;;;13.40;93.20;;;;;;5043485;28;20056;-67
2021/05/11 06:02:51;;;;;;;5.30;2.40;;;13.40;93.20;;;;;;5062071;28;20029;-67
2021/05/11 06:05:17;;;;;;;4.50;2.20;;;13.40;93.30;;;;;;5058452;28;20098;-67
2021/05/11 06:07:43;;;;;;;4.90;1.77;;;13.30;93.40;;;;;;5060541;28;20239;-68
2021/05/11 06:10:11;;;;;;;5.80;2.20;;;13.30;93.40;;;;;;5059126;28;20039;-69
2021/05/11 06:12:46;;;;;;;9.07;2.45;;;13.30;93.60;;;;;;5064295;28;20022;-67
2021/05/11 06:17:56;;;;;;;5.97;2.35;;;13.40;93.70;;;;;;5057581;28;20056;-67
2021/05/11 06:20:22;;;;;;;4.97;2.63;;;13.30;93.70;;;;;;5061971;28;20068;-68
2021/05/11 06:22:48;;;;;;;6.85;2.15;;;13.30;93.90;;;;;;5055307;28;20036;-73
2021/05/11 06:25:14;;;;;;;5.40;2.45;;;13.30;93.20;;;;;;5038033;28;20612;-67
2021/05/11 06:27:39;;;;;;;6.07;2.40;;;13.30;93.80;;;;;;5058188;28;20028;-67
2021/05/11 06:30:06;;;;;;;4.55;2.20;;;13.30;93.90;;;;;;5062521;28;20055;-73
2021/05/11 06:32:32;;;;;;;6.50;2.30;;;13.20;93.90;;;;;;5053492;28;20029;-71
2021/05/11 06:35:02;;;;;;;7.32;2.72;;;13.10;93.80;;;;;;5057499;28;20028;-69
2021/05/11 06:37:28;;;;;;;7.18;2.50;;;13.10;93.90;;;;;;5055773;28;20029;-72
2021/05/11 06:39:56;;;;;;;4.20;2.03;;;13.20;94.30;;;;;;5067859;28;20383;-72
2021/05/11 06:42:23;;;;;;;8.77;2.60;;;13.20;94.40;;;;;;5064117;28;20028;-72
2021/05/11 06:45:06;;;;;;;6.25;2.70;;;13.20;93.80;;;;;;5067553;28;20071;-72
2021/05/11 06:47:53;;;;;;;6.47;2.22;;;13.10;93.80;;;;;;5064001;28;20498;-72
2021/05/11 06:53:03;;;;;;;5.82;2.45;;;13.20;93.50;;;;;;5066719;28;20493;-72
2021/05/11 06:55:29;;;;;;;8.52;2.53;;;13.10;93.30;;;;;;5055781;28;20035;-72
2021/05/11 06:57:54;;;;;;;5.05;2.17;;;13.10;93.30;;;;;;5074989;28;20016;-69
2021/05/11 07:00:21;;;;;;;4.32;2.22;;;13.10;93.50;;;;;;5052600;28;20021;-69
2021/05/11 07:02:48;;;;;;;10.32;2.05;;;13.00;93.70;;;;;;5061340;28;20036;-69
2021/05/11 07:05:14;;;;;;;5.28;2.22;;;13.00;93.50;;;;;;5074050;28;20107;-69
2021/05/11 07:07:42;;;;;;;4.03;1.95;;;13.00;93.50;;;;;;5066118;28;20031;-69
2021/05/11 07:10:25;;;;;;;5.63;1.90;;;13.00;93.50;;;;;;5065074;28;20025;-69
2021/05/11 07:15:35;;;;;;;6.18;1.65;;;12.90;93.40;;;;;;5073111;28;20037;-70
2021/05/11 07:18:16;;;;;;;6.20;2.42;;;12.90;93.30;;;;;;5059480;28;20036;-70
2021/05/11 07:20:44;;;;;;;5.27;1.70;;;12.90;92.90;;;;;;5060214;28;20036;-71
2021/05/11 07:23:10;;;;;;;3.55;1.48;;;12.90;93.40;;;;;;5052605;28;20283;-70
2021/05/11 07:25:53;;;;;;;6.20;2.05;;;12.80;93.10;;;;;;5056280;28;20036;-69
2021/05/11 07:31:02;;;;;;;6.65;1.60;;;12.80;93.10;;;;;;5051699;28;20033;-70
2021/05/11 07:33:39;;;;;;;3.15;1.52;;;12.80;92.90;;;;;;5057404;28;20040;-73
2021/05/11 07:36:06;;;;;;;4.43;1.63;;;12.80;92.90;;;;;;5048587;28;20052;-71
2021/05/11 07:38:32;;;;;;;5.57;1.67;;;12.80;93.10;;;;;;5063012;28;20028;-72
2021/05/11 07:40:58;;;;;;;5.18;1.70;;;12.80;92.90;;;;;;5058571;28;20033;-72
2021/05/11 07:43:26;;;;;;;4.28;1.90;;;12.80;93.30;;;;;;5061681;28;20530;-72
2021/05/11 08:05:36;;;;;;;4.97;1.52;;;13.00;93.00;;;;;;5066364;28;20035;-71
2021/05/11 08:15:59;;;;;;;7.05;1.65;;;13.10;93.00;;;;;;5067620;28;20831;-72
2021/05/11 08:29:06;;;;;;;8.13;1.88;;;13.10;92.60;;;;;;5058844;28;20035;-72
2021/05/11 08:31:32;;;;;;;3.35;1.20;;;13.10;93.10;;;;;;5064032;28;20029;-72
2021/05/11 08:33:58;;;;;;;4.07;1.33;;;13.10;92.70;;;;;;5064995;28;20028;-72
2021/05/11 08:36:26;;;;;;;2.88;1.30;;;13.10;92.60;;;;;;5061007;28;20401;-72
2021/05/11 08:38:52;;;;;;;3.70;1.45;;;13.20;92.50;;;;;;5064982;28;20136;-72
2021/05/11 08:41:19;;;;;;;4.50;1.20;;;13.20;92.60;;;;;;5057475;28;20029;-73
2021/05/11 08:43:45;;;;;;;4.10;1.63;;;13.20;93.00;;;;;;5046957;28;20041;-71
2021/05/11 08:46:13;;;;;;;2.80;1.20;;;13.20;92.30;;;;;;5065318;28;20029;-71
2021/05/11 08:48:38;;;;;;;5.15;1.42;;;13.20;92.00;;;;;;5067553;28;20101;-72
2021/05/11 08:51:12;;;;;;;6.18;1.80;;;13.20;92.00;;;;;;5061899;28;20087;-71
2021/05/11 09:24:33;;;;;;;4.07;1.60;;;13.40;91.90;;;;;;5008003;28;20044;-72
2021/05/11 09:45:00;;;;;;;4.22;1.20;;;13.30;91.70;;;;;;5068510;28;20032;-71
2021/05/11 10:00:32;;;;;;;4.38;1.17;;;13.50;92.60;;;;;;5054472;28;20104;-74
2021/05/11 10:31:55;;;;;;;;;;;14.20;92.50;;;;;;5043567;28;20051;-70
2021/05/11 10:40:18;;;;;;;4.97;1.27;;;14.50;90.60;;;;;;5060080;28;20025;-75
2021/05/11 10:48:28;;;;;;;3.75;1.40;;;14.40;91.30;;;;;;5051706;28;20032;-71
2021/05/11 10:50:57;;;;;;;7.72;1.95;;;14.40;91.10;;;;;;5063189;28;20413;-72
2021/05/11 10:53:53;;;;;;;3.70;1.33;;;14.40;91.60;;;;;;5059407;28;20085;-72
2021/05/11 10:56:42;;;;;;;6.82;1.33;;;14.50;91.50;;;;;;5054270;28;20098;-70
2021/05/11 10:59:19;;;;;;;2.33;1.10;;;14.50;91.30;;;;;;5054008;28;20126;-71
2021/05/11 11:01:50;;;;;;;3.67;1.30;;;14.50;91.10;;;;;;5060439;28;20050;-71
2021/05/11 11:04:23;;;;;;;2.63;1.02;;;14.60;91.20;;;;;;5036585;28;20029;-71
2021/05/11 11:07:00;;;;;;;5.00;1.40;;;14.70;91.40;;;;;;5047333;28;20364;-71
2021/05/11 11:09:35;;;;;;;4.47;1.30;;;14.70;90.00;;;;;;5050095;28;20612;-71
2021/05/11 11:12:04;;;;;;;4.65;1.30;;;14.70;90.30;;;;;;5052377;28;20053;-74
2021/05/11 11:17:40;;;;;;;5.22;1.30;;;14.70;87.30;;;;;;5046243;28;20020;-72
2021/05/11 11:20:10;;;;;;;5.07;1.70;;;14.70;87.80;;;;;;5054034;28;20036;-70
2021/05/11 11:25:21;;;;;;;5.75;1.45;;;14.80;89.20;;;;;;5058594;28;20029;-70
2021/05/11 11:27:48;;;;;;;4.88;1.30;;;14.90;88.30;;;;;;5045985;28;20078;-72
2021/05/11 11:30:15;;;;;;;5.05;1.48;;;15.00;88.10;;;;;;5069164;28;20025;-73
2021/05/11 11:32:40;;;;;;;5.88;1.42;;;15.10;87.60;;;;;;5047928;28;20040;-72
2021/05/11 11:35:09;;;;;;;3.30;1.38;;;15.40;88.60;;;;;;5060973;28;20449;-71
2021/05/11 11:37:36;;;;;;;3.67;1.30;;;15.80;86.60;;;;;;5065868;28;20436;-72
2021/05/11 11:40:07;;;;;;;2.85;1.20;;;16.10;85.20;;;;;;5070595;28;20074;-73
2021/05/11 11:42:39;;;;;;;2.00;0.98;;;16.10;85.60;;;;;;5066167;28;20025;-73
2021/05/11 11:45:11;;;;;;;5.65;1.40;;;16.00;81.50;;;;;;5056321;28;20078;-72
2021/05/11 11:47:42;;;;;;;3.72;1.30;;;15.90;81.90;;;;;;5061715;28;20021;-74
2021/05/11 11:50:10;;;;;;;3.45;1.00;;;15.80;85.20;;;;;;5053189;28;20036;-73
2021/05/11 11:55:28;;;;;;;3.35;1.20;;;15.60;83.30;;;;;;5070290;28;20025;-74
2021/05/11 11:57:57;;;;;;;5.20;1.23;;;15.50;83.30;;;;;;5063677;28;20029;-73
2021/05/11 12:00:34;;;;;;;3.95;1.25;;;15.30;81.20;;;;;;5063404;28;20071;-74
2021/05/11 12:03:05;;;;;;;3.20;1.23;;;15.30;82.90;;;;;;5058145;28;20074;-72
2021/05/11 12:05:41;;;;;;;2.97;1.02;;;15.20;81.90;;;;;;5057038;28;20036;-72
2021/05/11 12:10:46;;;;;;;4.57;1.13;;;15.20;80.90;;;;;;5060753;28;20487;-74
2021/05/11 12:13:13;;;;;;;3.80;1.08;;;15.20;79.60;;;;;;5066678;28;20036;-74
2021/05/11 12:15:41;;;;;;;5.20;1.35;;;15.10;81.80;;;;;;5059568;28;20040;-73
2021/05/11 12:20:37;;;;;;;;;;;15.20;83.10;;;;;;5067151;28;20025;-72
2021/05/11 12:23:07;;;;;;;5.45;1.15;;;15.20;81.60;;;;;;5039628;28;20048;-72
2021/05/11 12:25:34;;;;;;;3.53;1.15;;;15.20;79.50;;;;;;5055819;28;20032;-72
2021/05/11 12:28:02;;;;;;;5.20;1.20;;;15.20;79.80;;;;;;5064864;28;20039;-70
2021/05/11 12:30:37;;;;;;;4.43;1.27;;;15.20;81.00;;;;;;5056618;28;20059;-71
2021/05/11 12:33:05;;;;;;;4.80;1.00;;;15.20;80.80;;;;;;5059372;28;20025;-69
2021/05/11 12:35:31;;;;;;;4.07;1.15;;;15.10;80.20;;;;;;5062698;28;20092;-66
2021/05/11 12:38:01;;;;;;;4.05;1.00;;;15.20;79.60;;;;;;5063005;28;20103;-69
2021/05/11 12:40:52;;;;;;;3.30;1.00;;;15.20;80.80;;;;;;5062413;28;20375;-69
2021/05/11 12:43:48;;;;;;;2.17;1.00;;;15.40;80.80;;;;;;5064388;28;20039;-68
2021/05/11 12:46:37;;;;;;;1.95;0.70;;;15.50;79.30;;;;;;5066021;28;20029;-70
2021/05/11 12:49:04;;;;;;;3.97;1.20;;;15.50;78.40;;;;;;5063842;28;20041;-69
2021/05/11 12:51:39;;;;;;;5.32;1.30;;;15.40;79.50;;;;;;5063585;28;20139;-68
2021/05/11 12:54:31;;;;;;;8.63;1.50;;;15.40;79.60;;;;;;5061701;28;20041;-68
2021/05/11 12:59:40;;;;;;;4.97;1.20;;;15.30;78.80;;;;;;5064272;28;20438;-72
2021/05/11 13:02:33;;;;;;;4.70;0.80;;;15.20;78.00;;;;;;5042097;28;20049;-74
2021/05/11 13:22:55;;;;;;;3.95;1.00;;;15.00;80.00;;;;;;5069867;28;20024;-72
2021/05/11 13:27:42;;;;;;;2.30;0.98;;;14.90;79.00;;;;;;5066092;28;20028;-76
2021/05/11 13:30:25;;;;;;;6.53;1.27;;;14.90;79.50;;;;;;5062475;28;20395;-73
2021/05/11 13:35:33;;;;;;;3.22;0.95;;;14.90;80.70;;;;;;5070864;28;20493;-69
2021/05/11 13:37:59;;;;;;;5.63;1.20;;;14.90;80.60;;;;;;5066274;28;20466;-68
2021/05/11 13:40:24;;;;;;;6.10;1.55;;;14.90;82.60;;;;;;5068042;28;20056;-68
2021/05/11 13:42:54;;;;;;;5.18;1.25;;;14.90;80.50;;;;;;5094281;28;20035;-68
2021/05/11 13:45:19;;;;;;;5.55;1.23;;;14.90;82.60;;;;;;5060816;28;20063;-69
2021/05/11 13:48:03;;;;;;;2.42;1.27;;;14.90;81.40;;;;;;5078630;28;20052;-69
2021/05/11 13:53:14;;;;;;;2.67;0.93;;;14.90;81.70;;;;;;5054490;28;20525;-71
2021/05/11 14:03:50;;;;;;;2.63;1.10;;;15.00;82.20;;;;;;5069557;28;20505;-70
2021/05/11 14:06:15;;;;;;;4.82;1.65;;;15.00;82.80;;;;;;5083620;28;20057;-74
2021/05/11 14:08:41;;;;;;;3.47;1.23;;;15.00;82.90;;;;;;5084163;28;20035;-72
2021/05/11 14:11:07;;;;;;;5.22;1.50;;;15.00;84.40;;;;;;5072257;28;20021;-70
2021/05/11 14:13:33;;;;;;;3.95;1.30;;;15.10;84.20;;;;;;5070160;28;20024;-71
2021/05/11 14:15:59;;;;;;;3.03;1.00;;;15.10;83.60;;;;;;5069727;28;20418;-71
2021/05/11 14:18:25;;;;;;;5.05;1.30;;;15.20;84.30;;;;;;5064015;28;20024;-71
2021/05/11 14:20:51;;;;;;;348.88;269.48;;;15.30;83.90;;;;;;5070314;28;20028;-73
2021/05/11 14:23:17;;;;;;;80.60;47.60;;;15.30;85.00;;;;;;5061900;28;20395;-69
2021/05/11 14:25:43;;;;;;;40.45;29.63;;;15.30;82.90;;;;;;5070318;28;20027;-68
2021/05/11 14:28:09;;;;;;;4.15;2.28;;;15.40;83.10;;;;;;5044917;28;20078;-68
2021/05/11 14:30:35;;;;;;;6.10;1.52;;;15.40;81.90;;;;;;5063156;28;20543;-68
2021/05/11 14:33:02;;;;;;;4.25;1.73;;;15.40;82.20;;;;;;5058469;28;20176;-68
2021/05/11 14:35:27;;;;;;;6.78;1.38;;;15.40;83.70;;;;;;5057911;28;20024;-68
2021/05/11 14:37:53;;;;;;;3.15;1.10;;;15.40;82.30;;;;;;5058801;28;20044;-68
2021/05/11 14:40:19;;;;;;;2.47;1.10;;;15.40;83.90;;;;;;5040838;28;20092;-68
2021/05/11 14:42:45;;;;;;;5.05;1.42;;;15.40;84.80;;;;;;5053778;28;20032;-68
2021/05/11 14:45:11;;;;;;;1.92;1.20;;;15.30;82.90;;;;;;5067879;28;20065;-68
2021/05/11 14:47:44;;;;;;;6.25;1.73;;;15.30;82.90;;;;;;5059510;28;20460;-69
2021/05/11 14:50:15;;;;;;;5.03;1.77;;;15.40;83.80;;;;;;5066765;28;20078;-68
2021/05/11 14:52:40;;;;;;;4.55;1.38;;;15.40;83.10;;;;;;5069614;28;20108;-69
2021/05/11 14:55:08;;;;;;;3.10;1.42;;;15.40;84.00;;;;;;5064581;28;20055;-68
2021/05/11 14:57:34;;;;;;;5.68;1.52;;;15.40;83.40;;;;;;5051077;28;20027;-68
2021/05/11 14:59:59;;;;;;;4.50;1.40;;;15.40;82.70;;;;;;5066799;28;20035;-68
2021/05/11 15:02:25;;;;;;;3.40;1.17;;;15.30;84.30;;;;;;5055608;28;20033;-68
2021/05/11 15:04:52;;;;;;;4.75;1.98;;;15.40;83.70;;;;;;5055605;28;20483;-69
2021/05/11 15:07:17;;;;;;;3.72;1.30;;;15.40;84.60;;;;;;5059161;28;20086;-68
2021/05/11 15:09:43;;;;;;;7.63;1.80;;;15.40;85.30;;;;;;5053062;28;20025;-68
2021/05/11 15:12:09;;;;;;;4.68;1.55;;;15.40;84.20;;;;;;5058487;28;20036;-70
2021/05/11 15:14:35;;;;;;;3.55;1.30;;;15.40;84.90;;;;;;5047775;28;20395;-68
2021/05/11 15:19:45;;;;;;;5.70;1.80;;;15.40;84.00;;;;;;5059280;28;20029;-70
2021/05/11 15:22:11;;;;;;;4.72;1.70;;;15.40;84.00;;;;;;5061957;28;20017;-69
2021/05/11 15:24:36;;;;;;;2.47;1.40;;;15.40;84.30;;;;;;5061786;28;20094;-69
2021/05/11 15:27:02;;;;;;;3.97;1.60;;;15.40;83.30;;;;;;5057470;28;20026;-69
2021/05/11 15:29:28;;;;;;;3.50;1.40;;;15.40;82.90;;;;;;5049031;28;20474;-70
2021/05/11 15:31:55;;;;;;;8.77;1.65;;;15.40;83.70;;;;;;5059554;28;20041;-69
2021/05/11 15:34:22;;;;;;;2.88;1.42;;;15.30;83.80;;;;;;5059958;28;20035;-69
2021/05/11 15:36:48;;;;;;;3.22;1.27;;;15.30;82.90;;;;;;5061718;28;20761;-70
2021/05/11 15:39:13;;;;;;;3.35;1.08;;;15.30;84.50;;;;;;5060913;28;20055;-70
2021/05/11 15:41:39;;;;;;;3.03;1.50;;;15.30;84.00;;;;;;5046706;28;20077;-69
2021/05/11 15:44:05;;;;;;;7.75;1.50;;;15.30;83.10;;;;;;5045307;28;20035;-69
2021/05/11 15:46:31;;;;;;;6.70;1.63;;;15.30;84.40;;;;;;5059530;28;20048;-68
2021/05/11 15:48:56;;;;;;;4.65;1.23;;;15.30;84.60;;;;;;5053014;28;20525;-70
2021/05/11 15:51:22;;;;;;;5.05;1.38;;;15.30;84.70;;;;;;5065962;28;20024;-69
2021/05/11 15:53:48;;;;;;;4.28;1.40;;;15.30;84.30;;;;;;5051691;28;20502;-71
2021/05/11 15:56:14;;;;;;;6.25;1.38;;;15.30;83.50;;;;;;5054404;28;20032;-69
2021/05/11 15:58:39;;;;;;;5.32;1.42;;;15.30;83.90;;;;;;5056210;28;20017;-70
2021/05/11 16:01:05;;;;;;;3.65;1.73;;;15.20;83.90;;;;;;5057138;28;20488;-69
2021/05/11 16:03:31;;;;;;;2.60;1.45;;;15.20;84.30;;;;;;5064623;28;20479;-69
2021/05/11 16:05:57;;;;;;;2.80;1.10;;;15.20;84.40;;;;;;5062801;28;20033;-70
2021/05/11 16:08:23;;;;;;;3.88;1.42;;;15.20;85.00;;;;;;5059487;28;20025;-71
2021/05/11 16:10:49;;;;;;;4.20;1.52;;;15.20;84.60;;;;;;5060009;28;20020;-69
2021/05/11 16:13:20;;;;;;;4.97;1.38;;;15.20;84.90;;;;;;5061116;28;20028;-68
2021/05/11 16:15:45;;;;;;;3.83;1.33;;;15.20;85.20;;;;;;5060288;28;20032;-69
2021/05/11 16:18:11;;;;;;;2.75;1.55;;;15.20;84.90;;;;;;5059785;28;20107;-69
2021/05/11 16:20:37;;;;;;;3.70;1.48;;;15.20;84.80;;;;;;5057212;28;20459;-68
2021/05/11 16:23:03;;;;;;;4.82;2.03;;;15.10;85.30;;;;;;5063495;28;20033;-69
2021/05/11 16:25:30;;;;;;;3.05;1.60;;;15.10;85.60;;;;;;5056624;28;20406;-69
2021/05/11 16:27:56;;;;;;;4.20;1.65;;;15.10;85.70;;;;;;5065484;28;20037;-69
2021/05/11 16:30:22;;;;;;;5.63;1.58;;;15.10;86.00;;;;;;5063627;28;20036;-68
2021/05/11 16:32:48;;;;;;;4.18;1.70;;;15.10;86.40;;;;;;5067494;28;20393;-68
2021/05/11 16:35:15;;;;;;;3.88;1.67;;;15.10;86.50;;;;;;5060865;28;20487;-68
2021/05/11 16:37:41;;;;;;;3.70;1.73;;;15.00;87.10;;;;;;5058923;28;20029;-69
2021/05/11 16:40:08;;;;;;;3.80;1.67;;;15.00;87.20;;;;;;5062366;28;20082;-69
2021/05/11 16:42:35;;;;;;;4.63;1.88;;;15.00;87.70;;;;;;5059762;28;20422;-67
2021/05/11 16:45:01;;;;;;;6.60;1.92;;;15.00;87.90;;;;;;5063499;28;20036;-68
2021/05/11 16:47:27;;;;;;;4.18;2.03;;;15.00;88.50;;;;;;5061051;28;20030;-69
2021/05/11 16:49:53;;;;;;;7.25;2.22;;;15.00;88.40;;;;;;5065331;28;20406;-69
2021/05/11 16:52:19;;;;;;;4.78;1.95;;;14.90;88.10;;;;;;5067800;28;20029;-71
2021/05/11 16:54:45;;;;;;;6.72;1.55;;;14.90;88.80;;;;;;5059076;28;20109;-70
2021/05/11 16:57:11;;;;;;;3.65;1.73;;;14.80;88.40;;;;;;5060615;28;20045;-70
2021/05/11 16:59:37;;;;;;;5.13;1.77;;;14.80;88.50;;;;;;5061930;28;20078;-70
2021/05/11 17:02:02;;;;;;;5.97;2.53;;;14.80;88.60;;;;;;5058487;28;20296;-68
2021/05/11 17:04:28;;;;;;;5.82;1.50;;;14.80;89.00;;;;;;5062040;28;20021;-69
2021/05/11 17:06:57;;;;;;;5.07;1.55;;;14.80;88.90;;;;;;5065269;28;20028;-68
2021/05/11 17:09:23;;;;;;;5.25;1.75;;;14.80;88.50;;;;;;5065345;28;20036;-69
2021/05/11 17:11:48;;;;;;;3.55;1.30;;;14.70;88.80;;;;;;5062042;28;20029;-69